Flight Track Log - Related Links

Times and Time Zones

All times are in EDT time to prevent confusion due to time zone crossing. See the N75AW flight status page for this flight to view local times or setup timezone preferences in your user account.

Time Position Orientation Groundspeed Altitude Reporting Facility
EDT Latitude Longitude Course Direction KTS MPH feet Rate Location/Type
Mon 02:21:57 PM 29.6867 -82.2900 176° South 129 148 1,200  Level Jacksonville Center
Mon 02:22:40 PM 29.6575 -82.2878 176° South 158 182 2,900 1,962 Climbing Jacksonville Center
Mon 02:23:41 PM 29.6156 -82.2594 150° Southeast 179 206 4,600 1,033 Climbing Jacksonville Center
Mon 02:24:42 PM 29.5592 -82.2408 164° South 228 262 5,000 742 Climbing Jacksonville Center
Mon 02:25:10 PM 29.5342 -82.2267 154° Southeast 230 265 5,700 2,164 Climbing Jacksonville Center
Mon 02:25:43 PM 29.5047 -82.2172 164° South 203 234 7,200 2,500 Climbing Jacksonville Center
Mon 02:26:10 PM 29.4881 -82.2056 149° Southeast 176 203 8,200 2,000 Climbing Jacksonville Center
Mon 02:27:10 PM 29.4461 -82.1867 159° South 176 203 10,100 1,950 Climbing Jacksonville Center
Mon 02:28:10 PM 29.3981 -82.1656 159° South 176 203 12,100 2,050 Climbing Jacksonville Center
Mon 02:29:10 PM 29.3519 -82.1444 158° South 176 203 14,200 1,500 Climbing Jacksonville Center
Mon 02:30:10 PM 29.3017 -82.1211 158° South 178 205 15,100 400 Climbing Jacksonville Center
Mon 02:31:10 PM 29.2369 -82.0931 159° South 217 250 15,000 -50 Descending Jacksonville Center
Mon 02:32:10 PM 29.1658 -82.0697 164° South 253 291 15,000  Level Jacksonville Center
Mon 02:33:10 PM 29.0886 -82.0822 188° South 265 305 15,000  Level Jacksonville Center
Mon 02:34:10 PM 29.0133 -82.0806 179° South 271 312 15,000 200 Level Jacksonville Center
Mon 02:35:10 PM 28.9464 -82.0361 150° Southeast 264 304 15,400 900 Climbing Jacksonville Center
Mon 02:36:10 PM 28.8878 -81.9986 151° Southeast 264 304 16,800 850 Climbing Jacksonville Center
Mon 02:37:10 PM 28.8375 -81.9683 152° Southeast 254 292 17,100 200 Climbing Jacksonville Center
Mon 02:38:10 PM 28.7661 -81.9308 155° Southeast 254 292 17,200  Climbing Jacksonville Center
Mon 02:39:10 PM 28.6989 -81.8889 151° Southeast 269 310 17,100  Descending Jacksonville Center
Mon 02:40:10 PM 28.6214 -81.8472 155° Southeast 269 310 17,200  Climbing Jacksonville Center
Mon 02:41:58 PM 28.4919 -81.8353 175° South 265 305 17,100 -36 Descending Miami Center
Mon 02:42:58 PM 28.4167 -81.8414 184° South 276 318 17,100  Level Miami Center
Mon 02:43:58 PM 28.3397 -81.8333 175° South 276 318 17,100  Level Miami Center
Mon 02:44:58 PM 28.2675 -81.8064 162° South 276 318 17,100 50 Level Miami Center
Mon 02:45:58 PM 28.1956 -81.7750 159° South 276 318 17,200  Climbing Miami Center
Mon 02:46:58 PM 28.1239 -81.7389 156° South 276 318 17,100  Descending Miami Center
Mon 02:47:58 PM 28.0517 -81.7122 162° South 282 325 17,200 -50 Climbing Miami Center
Mon 02:48:58 PM 27.9744 -81.7114 179° South 276 318 17,000 -100 Descending Miami Center
Mon 02:49:58 PM 27.8972 -81.7128 181° South 276 318 17,000  Level Miami Center
Mon 02:50:58 PM 27.8217 -81.7261 189° South 276 318 17,000  Level Miami Center
Mon 02:51:58 PM 27.7394 -81.7506 195° South 276 318 17,000 50 Level Miami Center
Mon 02:52:58 PM 27.6661 -81.7639 189° South 276 318 17,100  Climbing Miami Center
Mon 02:53:58 PM 27.5911 -81.7606 178° South 276 318 17,000 -200 Descending Miami Center
Mon 02:54:58 PM 27.5253 -81.7322 159° South 276 318 16,700 -950 Descending Miami Center
Mon 02:55:58 PM 27.4464 -81.7194 172° South 282 325 15,100 150 Descending Miami Center
Mon 02:56:58 PM 27.3647 -81.7253 184° South 287 330 17,000 950 Climbing Miami Center
Mon 02:57:58 PM 27.2872 -81.7292 183° South 287 330 17,000  Level Miami Center
Mon 02:58:58 PM 27.2122 -81.7328 182° South 287 330 17,000  Level Miami Center
Mon 02:59:58 PM 27.1453 -81.7347 181° South 272 313 17,000  Level Miami Center
Mon 03:00:58 PM 27.0825 -81.7367 182° South 247 284 17,000  Level Miami Center
Mon 03:01:58 PM 27.0264 -81.7275 172° South 224 258 17,000  Level Miami Center
Mon 03:02:58 PM 26.9758 -81.6811 141° Southeast 207 238 17,000  Level Miami Center
Mon 03:03:58 PM 26.9314 -81.6372 139° Southeast 219 252 17,000  Level Miami Center
Mon 03:04:58 PM 26.8744 -81.5908 144° Southeast 233 268 17,000  Level Miami Center
Mon 03:05:58 PM 26.8089 -81.5508 151° Southeast 247 284 17,000  Level Miami Center
Mon 03:06:58 PM 26.7467 -81.5414 172° South 232 267 17,000  Level Miami Center
Mon 03:07:58 PM 26.6864 -81.5319 172° South 232 267 17,000  Level Miami Center
Mon 03:08:58 PM 26.6319 -81.5392 187° South 224 258 17,000  Level Miami Center
Mon 03:09:58 PM 26.5619 -81.5689 201° Southwest 230 265 17,000  Level Miami Center
Mon 03:10:58 PM 26.5067 -81.5992 206° Southwest 236 272 17,000  Level Miami Center
Mon 03:11:58 PM 26.4497 -81.6222 200° South 231 266 17,000  Level Miami Center
Mon 03:12:58 PM 26.3947 -81.6433 199° South 226 260 17,000  Level Miami Center
Mon 03:13:58 PM 26.3419 -81.6619 198° South 213 245 17,000  Level Miami Center
Mon 03:14:58 PM 26.2869 -81.6831 199° South 213 245 17,000  Level Miami Center
Mon 03:15:58 PM 26.2383 -81.7017 199° South 213 245 17,000  Level Miami Center
Mon 03:17:00 PM 26.1787 -81.7455 213° Southwest  Level FlightAware Approximate
Mon 03:24:00 PM 26.1500 -81.7667 201° Southwest  Level FlightAware Approximate
Mon 03:25:00 PM 26.1524 -81.7756 201° Southwest  Level Estimated
Mon 03:26:00 PM 26.1524 -81.7756 201° Southwest  Level Estimated

Login

Don't have an account? Register now (free) for customized features, flight alerts, and more!